createdAt,value
2023-05-14T00:01:52.160Z,17.00
2023-05-14T00:04:19.682Z,16.90
2023-05-14T00:06:46.067Z,17.05
2023-05-14T00:09:13.120Z,17.13
2023-05-14T00:11:39.540Z,17.27
2023-05-14T00:14:05.959Z,17.10
2023-05-14T00:16:32.375Z,16.88
2023-05-14T00:18:58.767Z,16.81
2023-05-14T00:21:25.190Z,17.20
2023-05-14T00:23:51.589Z,16.87
2023-05-14T00:26:17.967Z,16.94
2023-05-14T00:28:44.876Z,17.03
2023-05-14T00:31:11.272Z,16.95
2023-05-14T00:33:37.686Z,17.04
2023-05-14T00:36:04.144Z,17.09
2023-05-14T00:38:30.511Z,16.85
2023-05-14T00:40:56.941Z,16.86
2023-05-14T00:43:23.377Z,16.72
2023-05-14T00:45:49.745Z,16.72
2023-05-14T00:48:16.119Z,16.71
2023-05-14T00:50:42.510Z,16.44
2023-05-14T00:53:10.374Z,16.23
2023-05-14T00:55:36.807Z,16.19
2023-05-14T00:58:03.188Z,16.54
2023-05-14T01:00:29.743Z,16.95
2023-05-14T01:02:56.213Z,17.11
2023-05-14T01:05:22.689Z,16.57
2023-05-14T01:07:49.289Z,16.55
2023-05-14T01:10:15.906Z,16.06
2023-05-14T01:12:42.256Z,16.04
2023-05-14T01:15:09.152Z,16.47
2023-05-14T01:17:35.596Z,16.71
2023-05-14T01:20:01.993Z,16.14
2023-05-14T01:22:28.368Z,16.39
2023-05-14T01:24:54.714Z,15.95
2023-05-14T01:27:21.183Z,16.32
2023-05-14T01:29:47.582Z,16.41
2023-05-14T01:32:14.000Z,16.23
2023-05-14T01:34:41.853Z,16.29
2023-05-14T01:37:08.244Z,16.22
2023-05-14T01:39:34.662Z,16.54
2023-05-14T01:42:01.108Z,16.44
2023-05-14T01:44:27.794Z,16.42
2023-05-14T01:46:54.195Z,16.55
2023-05-14T01:49:20.756Z,16.69
2023-05-14T01:51:47.156Z,16.42
2023-05-14T01:54:13.515Z,16.43
2023-05-14T01:56:39.954Z,15.72
2023-05-14T01:59:06.312Z,15.84
2023-05-14T02:01:33.884Z,15.71
2023-05-14T02:04:01.153Z,15.95
2023-05-14T02:06:27.606Z,15.78
2023-05-14T02:08:55.833Z,15.98
2023-05-14T02:11:22.337Z,16.19
2023-05-14T02:13:48.745Z,16.09
2023-05-14T02:16:15.213Z,16.03
2023-05-14T02:18:41.748Z,16.02
2023-05-14T02:21:08.166Z,16.03
2023-05-14T02:23:41.619Z,15.87
2023-05-14T02:26:09.966Z,15.70
2023-05-14T02:28:37.159Z,15.86
2023-05-14T02:31:03.622Z,15.53
2023-05-14T02:33:30.537Z,15.14
2023-05-14T02:35:56.974Z,15.22
2023-05-14T02:38:23.335Z,14.86
2023-05-14T02:40:49.690Z,14.88
2023-05-14T02:43:16.079Z,14.84
2023-05-14T02:45:42.877Z,14.85
2023-05-14T02:48:09.365Z,14.87
2023-05-14T02:50:35.725Z,14.99
2023-05-14T02:53:02.177Z,14.85
2023-05-14T02:55:28.570Z,14.74
2023-05-14T02:57:55.005Z,14.48
2023-05-14T03:00:21.776Z,14.48
2023-05-14T03:02:48.724Z,14.44
2023-05-14T03:05:15.504Z,14.66
2023-05-14T03:07:41.877Z,14.83
2023-05-14T03:10:08.302Z,14.96
2023-05-14T03:12:34.763Z,14.63
2023-05-14T03:15:01.211Z,14.66
2023-05-14T03:17:27.578Z,14.83
2023-05-14T03:19:53.976Z,14.73
2023-05-14T03:22:20.417Z,14.50
2023-05-14T03:24:47.418Z,14.66
2023-05-14T03:27:13.766Z,14.86
2023-05-14T03:29:40.137Z,14.90
2023-05-14T03:32:06.525Z,14.92
2023-05-14T03:34:32.880Z,14.67
2023-05-14T03:36:59.230Z,14.75
2023-05-14T03:39:25.607Z,14.64
2023-05-14T03:41:52.065Z,14.82
2023-05-14T03:44:18.537Z,14.85
2023-05-14T03:46:44.959Z,14.73
2023-05-14T03:49:11.432Z,14.29
2023-05-14T03:51:37.925Z,14.25
2023-05-14T03:54:05.658Z,14.53
2023-05-14T03:56:32.487Z,14.73
2023-05-14T03:58:58.885Z,14.67
2023-05-14T04:01:25.469Z,14.73
2023-05-14T04:03:52.158Z,14.60
2023-05-14T04:06:18.766Z,14.64
2023-05-14T04:08:45.205Z,14.56
2023-05-14T04:11:11.568Z,15.25
2023-05-14T04:13:37.930Z,15.32
2023-05-14T04:16:04.345Z,15.55
2023-05-14T04:18:34.886Z,15.53
2023-05-14T04:21:01.759Z,15.32
2023-05-14T04:23:28.119Z,15.43
2023-05-14T04:25:54.529Z,15.36
2023-05-14T04:28:21.156Z,15.46
2023-05-14T04:30:47.498Z,15.55
2023-05-14T04:33:13.862Z,15.87
2023-05-14T04:35:40.210Z,15.89
2023-05-14T04:38:06.572Z,15.45
2023-05-14T04:40:33.005Z,15.64
2023-05-14T04:42:59.334Z,15.40
2023-05-14T04:45:26.501Z,15.37
2023-05-14T04:47:52.965Z,15.26
2023-05-14T04:50:19.377Z,15.61
2023-05-14T04:52:45.820Z,15.67
2023-05-14T04:55:12.183Z,15.48
2023-05-14T04:57:38.766Z,14.85
2023-05-14T05:00:09.646Z,15.69
2023-05-14T05:02:36.138Z,15.17
2023-05-14T05:05:02.647Z,14.65
2023-05-14T05:07:28.972Z,15.29
2023-05-14T05:09:55.366Z,15.09
2023-05-14T05:12:21.715Z,14.92
2023-05-14T05:14:48.036Z,15.13
2023-05-14T05:17:14.403Z,15.77
2023-05-14T05:19:44.220Z,16.09
2023-05-14T05:22:11.059Z,16.18
2023-05-14T05:24:37.592Z,16.18
2023-05-14T05:27:05.389Z,16.33
2023-05-14T05:29:32.062Z,16.17
2023-05-14T05:31:58.453Z,16.42
2023-05-14T05:34:24.825Z,16.36
2023-05-14T05:36:51.584Z,16.34
2023-05-14T05:39:17.938Z,16.69
2023-05-14T05:41:44.403Z,16.58
2023-05-14T05:44:10.736Z,16.81
2023-05-14T05:46:37.528Z,16.79
2023-05-14T05:49:03.907Z,16.67
2023-05-14T05:51:30.291Z,16.68
2023-05-14T05:53:56.644Z,17.39
2023-05-14T05:56:22.999Z,17.48
2023-05-14T05:58:51.174Z,17.41
2023-05-14T06:01:17.534Z,16.77
2023-05-14T06:03:44.849Z,17.13
2023-05-14T06:06:12.848Z,17.19
2023-05-14T06:08:42.132Z,17.44
2023-05-14T06:11:11.714Z,17.37
2023-05-14T06:13:38.265Z,17.43
2023-05-14T06:16:04.829Z,17.09
2023-05-14T06:18:31.244Z,17.29
2023-05-14T06:20:57.883Z,17.17
2023-05-14T06:23:24.341Z,17.09
2023-05-14T06:25:53.755Z,17.44
2023-05-14T06:28:20.186Z,17.71
2023-05-14T06:30:46.709Z,17.74
2023-05-14T06:33:13.801Z,17.96
2023-05-14T06:35:40.392Z,18.00
2023-05-14T06:38:06.795Z,18.12
2023-05-14T06:40:33.564Z,18.30
2023-05-14T06:43:00.038Z,18.47
2023-05-14T06:45:26.539Z,18.15
2023-05-14T06:47:53.130Z,18.17
2023-05-14T06:50:20.069Z,18.31
2023-05-14T06:52:46.935Z,18.37
2023-05-14T06:55:13.324Z,18.33
2023-05-14T06:57:40.820Z,18.34
2023-05-14T07:00:08.183Z,18.64
2023-05-14T07:02:34.724Z,18.85
2023-05-14T07:05:02.085Z,19.01
2023-05-14T07:07:28.668Z,19.26
2023-05-14T07:09:55.085Z,18.87
2023-05-14T07:12:21.476Z,19.23
2023-05-14T07:14:47.837Z,19.36
2023-05-14T07:17:14.338Z,19.73
2023-05-14T07:19:40.952Z,20.09
2023-05-14T07:22:07.378Z,19.86
2023-05-14T07:24:33.744Z,19.54
2023-05-14T07:27:02.639Z,19.24
2023-05-14T07:29:30.419Z,18.87
2023-05-14T07:31:57.040Z,19.43
2023-05-14T07:34:23.505Z,19.61
2023-05-14T07:36:50.289Z,19.64
2023-05-14T07:39:16.891Z,20.10
2023-05-14T07:41:43.428Z,19.85
2023-05-14T07:44:10.040Z,19.99
2023-05-14T07:46:38.025Z,20.12
2023-05-14T07:49:04.663Z,20.13
2023-05-14T07:51:34.488Z,20.03
2023-05-14T07:54:01.161Z,20.13
2023-05-14T07:56:27.760Z,20.66
2023-05-14T07:58:54.186Z,20.75
2023-05-14T08:01:20.920Z,20.55
2023-05-14T08:03:47.778Z,20.64
2023-05-14T08:06:14.950Z,20.84
2023-05-14T08:08:41.353Z,20.88
2023-05-14T08:11:07.942Z,21.01
2023-05-14T08:13:34.401Z,21.18
2023-05-14T08:16:00.813Z,21.53
2023-05-14T08:18:27.491Z,21.57
2023-05-14T08:20:53.980Z,21.19
2023-05-14T08:23:20.784Z,21.39
2023-05-14T08:25:47.322Z,21.62
2023-05-14T08:28:13.689Z,20.96
2023-05-14T08:30:40.235Z,20.60
2023-05-14T08:33:09.231Z,20.34
2023-05-14T08:35:35.703Z,20.47
2023-05-14T08:38:02.590Z,20.69
2023-05-14T08:40:29.029Z,20.93
2023-05-14T08:42:55.489Z,21.13
2023-05-14T08:45:22.034Z,21.06
2023-05-14T08:47:49.766Z,20.88
2023-05-14T08:50:22.764Z,20.88
2023-05-14T08:52:49.871Z,21.03
2023-05-14T08:55:16.270Z,21.13
2023-05-14T08:57:42.845Z,21.02
2023-05-14T09:00:13.111Z,21.05
2023-05-14T09:02:39.705Z,21.16
2023-05-14T09:05:08.992Z,21.28
2023-05-14T09:07:35.487Z,21.64
2023-05-14T09:10:02.502Z,21.75
2023-05-14T09:12:28.870Z,21.18
2023-05-14T09:14:55.288Z,20.93
2023-05-14T09:17:24.838Z,20.42
2023-05-14T09:19:53.133Z,20.78
2023-05-14T09:22:20.050Z,20.40
2023-05-14T09:24:46.586Z,20.40
2023-05-14T09:27:13.033Z,20.64
2023-05-14T09:29:41.906Z,21.41
2023-05-14T09:32:10.267Z,20.84
2023-05-14T09:34:39.758Z,20.98
2023-05-14T09:37:06.204Z,20.68
2023-05-14T09:39:32.590Z,21.10
2023-05-14T09:41:59.130Z,21.04
2023-05-14T09:44:25.841Z,20.95
2023-05-14T09:46:52.286Z,21.21
2023-05-14T09:49:18.783Z,21.42
2023-05-14T09:51:45.396Z,21.42
2023-05-14T09:54:11.899Z,21.48
2023-05-14T09:56:39.881Z,21.48
2023-05-14T09:59:06.371Z,21.76
2023-05-14T10:01:33.067Z,21.71
2023-05-14T10:03:59.770Z,21.90
2023-05-14T10:06:26.384Z,22.37
2023-05-14T10:08:52.809Z,21.93
2023-05-14T10:11:21.152Z,21.86
2023-05-14T10:13:47.547Z,21.85
2023-05-14T10:16:14.384Z,21.34
2023-05-14T10:18:41.134Z,21.44
2023-05-14T10:21:07.550Z,21.78
2023-05-14T10:23:34.057Z,21.64
2023-05-14T10:26:00.599Z,21.16
2023-05-14T10:28:27.103Z,21.68
2023-05-14T10:30:53.530Z,21.65
2023-05-14T10:33:19.980Z,21.64
2023-05-14T10:35:46.385Z,21.15
2023-05-14T10:38:12.753Z,21.04
2023-05-14T10:40:39.188Z,21.18
2023-05-14T10:43:05.934Z,21.37
2023-05-14T10:45:34.332Z,21.56
2023-05-14T10:48:00.957Z,21.84
2023-05-14T10:50:27.445Z,22.31
2023-05-14T10:52:55.278Z,21.77
2023-05-14T10:55:21.675Z,21.66
2023-05-14T10:57:48.148Z,21.68
2023-05-14T11:00:14.767Z,21.95
2023-05-14T11:02:41.346Z,21.79
2023-05-14T11:05:11.571Z,21.92
2023-05-14T11:07:38.112Z,21.73
2023-05-14T11:10:04.538Z,21.79
2023-05-14T11:12:31.158Z,22.44
2023-05-14T11:14:58.118Z,22.47
2023-05-14T11:17:24.940Z,21.81
2023-05-14T11:19:51.447Z,22.14
2023-05-14T11:22:18.425Z,22.42
2023-05-14T11:24:44.956Z,22.30
2023-05-14T11:27:11.355Z,22.98
2023-05-14T11:29:37.889Z,22.57
2023-05-14T11:32:04.455Z,23.12
2023-05-14T11:34:31.244Z,23.58
2023-05-14T11:36:57.674Z,22.97
2023-05-14T11:39:24.087Z,22.61
2023-05-14T11:41:50.475Z,22.26
2023-05-14T11:44:16.877Z,22.35
2023-05-14T11:46:43.303Z,22.25
2023-05-14T11:49:09.795Z,22.06
2023-05-14T11:51:36.445Z,22.59
2023-05-14T11:54:04.017Z,22.90
2023-05-14T11:56:30.544Z,23.00
2023-05-14T11:58:57.537Z,22.46
2023-05-14T12:01:24.118Z,22.86
2023-05-14T12:03:50.789Z,22.99
2023-05-14T12:06:17.177Z,22.60
2023-05-14T12:08:43.677Z,22.89
2023-05-14T12:11:10.176Z,22.71
2023-05-14T12:13:36.752Z,23.02
2023-05-14T12:16:03.508Z,22.97
2023-05-14T12:18:30.265Z,22.85
2023-05-14T12:20:56.953Z,22.53
2023-05-14T12:23:23.412Z,22.63
2023-05-14T12:25:49.824Z,22.95
2023-05-14T12:28:16.530Z,23.43
2023-05-14T12:30:43.071Z,23.43
2023-05-14T12:33:09.980Z,23.47
2023-05-14T12:35:37.000Z,23.64
2023-05-14T12:38:03.589Z,23.27
2023-05-14T12:40:30.264Z,22.71
2023-05-14T12:42:56.961Z,22.76
2023-05-14T12:45:23.640Z,22.94
2023-05-14T12:47:51.283Z,23.51
2023-05-14T12:50:17.806Z,22.81
2023-05-14T12:52:44.503Z,23.18
2023-05-14T12:55:10.937Z,22.91
2023-05-14T12:57:38.438Z,22.54
2023-05-14T13:00:07.110Z,22.62
2023-05-14T13:02:33.650Z,22.60
2023-05-14T13:05:09.869Z,22.65
2023-05-14T13:07:36.408Z,22.50
2023-05-14T13:10:05.508Z,22.77
2023-05-14T13:12:32.449Z,23.04
2023-05-14T13:14:58.868Z,22.98
2023-05-14T13:17:25.343Z,23.28
2023-05-14T13:19:51.780Z,22.99
2023-05-14T13:22:18.890Z,23.13
2023-05-14T13:24:45.741Z,22.72
2023-05-14T13:27:12.117Z,22.35
2023-05-14T13:29:38.577Z,22.46
2023-05-14T13:32:05.110Z,22.59
2023-05-14T13:34:31.669Z,22.59
2023-05-14T13:36:58.042Z,22.48
2023-05-14T13:39:27.217Z,22.72
2023-05-14T13:41:53.985Z,22.86
2023-05-14T13:44:20.689Z,22.87
2023-05-14T13:46:47.128Z,23.35
2023-05-14T13:49:13.602Z,23.39
2023-05-14T13:51:40.132Z,23.23
2023-05-14T13:54:06.860Z,23.34
2023-05-14T13:56:34.174Z,23.24
2023-05-14T13:59:00.677Z,23.14
2023-05-14T14:01:27.260Z,22.66
2023-05-14T14:03:53.800Z,22.41
2023-05-14T14:06:20.243Z,22.61
2023-05-14T14:08:46.736Z,22.72
2023-05-14T14:11:13.720Z,22.65
2023-05-14T14:13:40.161Z,22.83
2023-05-14T14:16:06.545Z,22.52
2023-05-14T14:18:32.975Z,22.69
2023-05-14T14:20:59.408Z,23.05
2023-05-14T14:23:25.791Z,23.09
2023-05-14T14:25:52.170Z,23.60
2023-05-14T14:28:19.008Z,23.68
2023-05-14T14:30:45.554Z,22.93
2023-05-14T14:33:11.979Z,22.70
2023-05-14T14:35:38.566Z,22.75
2023-05-14T14:38:04.920Z,22.61
2023-05-14T14:40:32.617Z,23.01
2023-05-14T14:42:59.185Z,22.91
2023-05-14T14:45:25.652Z,23.15
2023-05-14T14:47:52.484Z,23.38
2023-05-14T14:50:18.890Z,23.48
2023-05-14T14:52:47.840Z,23.23
2023-05-14T14:55:14.196Z,23.24
2023-05-14T14:57:40.666Z,22.92
2023-05-14T15:00:07.286Z,22.84
2023-05-14T15:02:34.123Z,23.05
2023-05-14T15:05:00.762Z,23.21
2023-05-14T15:07:27.201Z,23.32
2023-05-14T15:09:53.779Z,23.34
2023-05-14T15:12:20.120Z,22.89
2023-05-14T15:14:46.512Z,22.28
2023-05-14T15:17:13.030Z,22.19
2023-05-14T15:19:39.515Z,22.47
2023-05-14T15:22:05.872Z,22.45
2023-05-14T15:24:32.256Z,22.39
2023-05-14T15:26:58.606Z,22.35
2023-05-14T15:29:25.024Z,22.24
2023-05-14T15:31:51.424Z,22.12
2023-05-14T15:34:17.853Z,22.07
2023-05-14T15:36:44.223Z,21.96
2023-05-14T15:39:10.580Z,22.37
2023-05-14T15:41:37.044Z,22.25
2023-05-14T15:44:03.441Z,22.27
2023-05-14T15:46:30.523Z,22.07
2023-05-14T15:48:56.977Z,22.05
2023-05-14T15:51:23.343Z,22.21
2023-05-14T15:53:49.708Z,22.30
2023-05-14T15:56:16.585Z,22.43
2023-05-14T15:58:43.110Z,22.41
2023-05-14T16:01:09.484Z,22.42
2023-05-14T16:03:35.940Z,22.55
2023-05-14T16:06:02.436Z,22.59
2023-05-14T16:08:28.863Z,22.39
2023-05-14T16:10:55.214Z,22.39
2023-05-14T16:13:21.646Z,22.40
2023-05-14T16:15:48.223Z,22.39
2023-05-14T16:18:14.579Z,21.91
2023-05-14T16:20:41.548Z,22.01
2023-05-14T16:23:07.917Z,22.05
2023-05-14T16:25:34.690Z,21.72
2023-05-14T16:28:01.024Z,21.75
2023-05-14T16:30:27.369Z,21.76
2023-05-14T16:32:53.899Z,21.78
2023-05-14T16:35:20.675Z,21.77
2023-05-14T16:37:47.069Z,21.93
2023-05-14T16:40:13.491Z,21.84
2023-05-14T16:42:39.879Z,22.08
2023-05-14T16:45:06.309Z,22.04
2023-05-14T16:47:32.704Z,21.78
2023-05-14T16:49:59.090Z,22.17
2023-05-14T16:52:25.426Z,21.73
2023-05-14T16:54:51.794Z,22.02
2023-05-14T16:57:18.247Z,22.24
2023-05-14T16:59:44.657Z,22.28
2023-05-14T17:02:10.997Z,22.20
2023-05-14T17:04:40.861Z,22.03
2023-05-14T17:07:07.276Z,21.85
2023-05-14T17:12:00.051Z,22.04
2023-05-14T17:14:26.535Z,21.92
2023-05-14T17:16:52.854Z,22.13
2023-05-14T17:19:19.185Z,22.01
2023-05-14T17:21:45.552Z,22.37
2023-05-14T17:24:11.949Z,22.03
2023-05-14T17:26:38.317Z,21.85
2023-05-14T17:29:04.648Z,22.07
2023-05-14T17:31:31.243Z,22.00
2023-05-14T17:33:57.685Z,21.83
2023-05-14T17:36:24.200Z,21.88
2023-05-14T17:38:50.629Z,21.87
2023-05-14T17:41:16.960Z,21.71
2023-05-14T17:43:43.291Z,21.71
2023-05-14T17:46:09.837Z,21.95
2023-05-14T17:48:36.257Z,21.91
2023-05-14T17:51:02.600Z,21.59
2023-05-14T17:53:29.032Z,21.74
2023-05-14T17:55:55.470Z,21.66
2023-05-14T17:58:21.828Z,21.54
2023-05-14T18:00:48.727Z,21.53
2023-05-14T18:03:15.499Z,21.68
2023-05-14T18:05:42.128Z,21.47
2023-05-14T18:08:10.009Z,21.58
2023-05-14T18:10:36.386Z,21.27
2023-05-14T18:13:02.731Z,21.35
2023-05-14T18:15:31.417Z,21.49
2023-05-14T18:17:57.831Z,21.28
2023-05-14T18:20:24.202Z,21.63
2023-05-14T18:22:51.340Z,21.44
2023-05-14T18:25:18.253Z,21.36
2023-05-14T18:27:45.223Z,21.17
2023-05-14T18:30:12.233Z,21.21
2023-05-14T18:32:38.816Z,21.22
2023-05-14T18:35:07.758Z,21.22
2023-05-14T18:37:34.970Z,21.39
2023-05-14T18:40:01.386Z,21.22
2023-05-14T18:42:27.864Z,21.44
2023-05-14T18:44:54.220Z,21.31
2023-05-14T18:47:20.591Z,21.19
2023-05-14T18:49:47.158Z,21.23
2023-05-14T18:52:13.570Z,21.22
2023-05-14T18:54:39.966Z,21.44
2023-05-14T18:57:06.347Z,21.34
2023-05-14T18:59:32.676Z,21.18
2023-05-14T19:01:59.359Z,20.99
2023-05-14T19:04:26.705Z,21.13
2023-05-14T19:06:53.066Z,21.24
2023-05-14T19:09:21.077Z,21.02
2023-05-14T19:11:47.529Z,21.10
2023-05-14T19:14:14.228Z,20.99
2023-05-14T19:16:40.608Z,21.11
2023-05-14T19:19:07.081Z,21.14
2023-05-14T19:21:33.477Z,21.09
2023-05-14T19:24:00.347Z,20.94
2023-05-14T19:26:26.806Z,20.73
2023-05-14T19:28:58.405Z,20.93
2023-05-14T19:31:24.890Z,20.98
2023-05-14T19:33:53.204Z,21.21
2023-05-14T19:36:19.601Z,21.02
2023-05-14T19:38:46.267Z,21.05
2023-05-14T19:41:12.628Z,20.55
2023-05-14T19:43:38.989Z,20.59
2023-05-14T19:46:06.415Z,20.64
2023-05-14T19:48:33.571Z,20.49
2023-05-14T19:51:00.056Z,20.45
2023-05-14T19:53:29.721Z,20.72
2023-05-14T19:55:56.093Z,20.42
2023-05-14T19:58:22.437Z,20.40
2023-05-14T20:00:51.830Z,20.30
2023-05-14T20:03:18.634Z,20.12
2023-05-14T20:05:49.004Z,20.05
2023-05-14T20:08:17.208Z,20.24
2023-05-14T20:10:44.553Z,20.04
2023-05-14T20:13:10.967Z,20.04
2023-05-14T20:15:37.404Z,19.99
2023-05-14T20:18:03.812Z,20.27
2023-05-14T20:20:32.880Z,20.06
2023-05-14T20:22:59.850Z,20.06
2023-05-14T20:25:28.329Z,20.11
2023-05-14T20:27:55.270Z,20.38
2023-05-14T20:30:21.672Z,19.99
2023-05-14T20:32:48.102Z,19.99
2023-05-14T20:35:14.507Z,19.98
2023-05-14T20:37:41.277Z,20.10
2023-05-14T20:40:10.332Z,19.90
2023-05-14T20:42:36.987Z,19.93
2023-05-14T20:45:03.826Z,19.90
2023-05-14T20:47:31.927Z,19.87
2023-05-14T20:49:58.609Z,19.73
2023-05-14T20:52:24.977Z,19.68
2023-05-14T20:54:51.346Z,19.67
2023-05-14T20:57:17.746Z,19.69
2023-05-14T20:59:44.153Z,19.55
2023-05-14T21:02:10.827Z,19.64
2023-05-14T21:04:37.319Z,19.50
2023-05-14T21:07:03.857Z,19.72
2023-05-14T21:09:30.231Z,19.64
2023-05-14T21:11:56.578Z,19.41
2023-05-14T21:14:23.014Z,19.19
2023-05-14T21:16:49.476Z,18.77
2023-05-14T21:19:15.982Z,18.59
2023-05-14T21:21:42.528Z,18.77
2023-05-14T21:24:09.166Z,18.89
2023-05-14T21:26:36.823Z,18.65
2023-05-14T21:29:03.446Z,18.59
2023-05-14T21:31:29.821Z,18.58
2023-05-14T21:33:56.264Z,18.75
2023-05-14T21:36:22.594Z,18.86
2023-05-14T21:38:48.990Z,18.81
2023-05-14T21:41:15.518Z,18.50
2023-05-14T21:43:43.810Z,18.34
2023-05-14T21:46:10.272Z,18.54
2023-05-14T21:48:37.167Z,18.70
2023-05-14T21:51:04.064Z,18.55
2023-05-14T21:53:30.599Z,18.68
2023-05-14T21:55:56.944Z,18.08
2023-05-14T21:58:24.629Z,18.23
2023-05-14T22:00:51.620Z,18.04
2023-05-14T22:03:21.466Z,17.65
2023-05-14T22:05:49.175Z,18.12
2023-05-14T22:08:17.507Z,17.86
2023-05-14T22:10:44.194Z,17.73
2023-05-14T22:13:11.558Z,17.78
2023-05-14T22:15:37.988Z,17.95
2023-05-14T22:18:04.837Z,17.80
2023-05-14T22:20:31.258Z,18.02
2023-05-14T22:22:57.646Z,18.00
2023-05-14T22:25:24.257Z,17.95
2023-05-14T22:27:51.247Z,18.07
2023-05-14T22:30:17.806Z,18.22
2023-05-14T22:32:44.424Z,18.37
2023-05-14T22:35:11.607Z,18.22
2023-05-14T22:37:37.986Z,18.09
2023-05-14T22:40:05.679Z,18.04
2023-05-14T22:42:32.110Z,18.18
2023-05-14T22:44:58.636Z,18.57
2023-05-14T22:47:25.853Z,17.62
2023-05-14T22:49:52.585Z,17.39
2023-05-14T22:52:19.196Z,17.37
2023-05-14T22:54:45.759Z,17.37
2023-05-14T22:57:12.482Z,17.58
2023-05-14T22:59:39.780Z,17.45
2023-05-14T23:02:06.603Z,17.97
2023-05-14T23:04:33.439Z,17.72
2023-05-14T23:07:00.556Z,18.09
2023-05-14T23:09:27.096Z,18.59
2023-05-14T23:11:53.761Z,18.60
2023-05-14T23:14:20.416Z,18.17
2023-05-14T23:16:46.816Z,18.17
2023-05-14T23:19:13.522Z,18.27
2023-05-14T23:21:40.492Z,18.27
2023-05-14T23:24:07.922Z,18.89
2023-05-14T23:26:34.541Z,18.11
2023-05-14T23:29:01.037Z,18.08
2023-05-14T23:31:27.406Z,18.28
2023-05-14T23:33:54.213Z,18.07
2023-05-14T23:36:20.722Z,17.79
2023-05-14T23:38:47.209Z,17.96
2023-05-14T23:41:14.233Z,17.64
2023-05-14T23:43:43.603Z,17.60
2023-05-14T23:46:10.437Z,18.09
2023-05-14T23:48:37.100Z,17.93
2023-05-14T23:51:03.576Z,18.07
2023-05-14T23:53:33.452Z,18.06
2023-05-14T23:55:59.800Z,17.82
2023-05-14T23:58:26.325Z,17.73
